Nearby METAR Reports

 

KGRB - Ashwaubenon, Wisconsin, USA
Distance from station: NW 5mi, 8km
Updated: Tue, 10-Dec-2019 4:53am CST
Overcast
Overcast
 Wind from WNW
Wind: WNW 16 mph , 26 km/h, Gust: 25 mph , 41 km/h
Temperature: 16°F , -9°C
Wind Chill: 1°F , -17°C
Dew Point: 7°F , -14°C
Humidity: 67%
Barometer: 29.93 inHg , 1013.5 hPa
Clouds: Overcast
Visibility: 10 miles , 16 km
Cloud details: Overcast 3900 ft
2019/12/10 10:53 KGRB 101053Z AUTO 29014G22KT 10SM OVC039 M09/M14 A2993 RMK AO2 SLP148 T10891139
KATW - Appleton/Outagam, Wisconsin, USA
Distance from station: WSW 26mi, 42km
Updated: Tue, 10-Dec-2019 5:20am CST
Mostly cloudy
Mostly cloudy
 Wind from WNW
Wind: WNW 16 mph , 26 km/h
Temperature: 10°F , -12°C
Wind Chill: -7°F , -22°C
Dew Point: 1°F , -17°C
Humidity: 67%
Barometer: 29.93 inHg , 1013.5 hPa
Clouds: Mostly cloudy
Visibility: 10 miles , 16 km
Cloud details: Partly cloudy 1900 ft
Mostly cloudy 4000 ft
2019/12/10 11:20 KATW 101120Z 30014KT 10SM SCT019 BKN040 M12/M17 A2993 RMK FIRST
 
KMTW - Manitowac Muni, Wisconsin, USA
Distance from station: SE 29mi, 47km
Updated: Tue, 10-Dec-2019 4:56am CST
Light snow, Mist, Overcast
Light snow, Mist, Overcast
 Wind from W
Wind: W 17 mph , 28 km/h, Gust: 21 mph , 33 km/h
Temperature: 18°F , -8°C
Wind Chill: 3°F , -16°C
Dew Point: 12°F , -11°C
Humidity: 79%
Barometer: 29.92 inHg , 1013.2 hPa
Summary: Light snow, Mist
Clouds: Overcast
Visibility: 6 miles , 10 km
Cloud details: Few Clouds 1500 ft
Mostly cloudy 3500 ft
Overcast 6000 ft
2019/12/10 10:56 KMTW 101056Z AUTO 28015G18KT 6SM -SN BR FEW015 BKN035 OVC060 M08/M11 A2992 RMK AO2 SLP142 P0000 T10831106 FZRANO
KOCQ - Oconto, Wisconsin, USA
Distance from station: NNE 30mi, 49km
Updated: Tue, 10-Dec-2019 5:15am CST
Overcast
Overcast
 Wind from NW
Wind: NW 8 mph , 13 km/h
Temperature: 16°F , -9°C
Wind Chill: 5°F , -15°C
Dew Point: 5°F , -15°C
Humidity: 62%
Barometer: 29.93 inHg , 1013.5 hPa
Clouds: Overcast
Visibility: 10 miles , 16 km
Cloud details: Overcast 3600 ft
2019/12/10 11:15 KOCQ 101115Z AUTO 31007KT 10SM OVC036 M09/M15 A2993 RMK AO1 T10911148
 
KEZS - Shawano Muni, Wisconsin, USA
Distance from station: NW 35mi, 56km
Updated: Tue, 10-Dec-2019 5:15am CST
Partly cloudy
Partly cloudy
 Wind from WNW
Wind: WNW 8 mph , 13 km/h
Temperature: 14°F , -10°C
Wind Chill: 3°F , -16°C
Dew Point: 7°F , -14°C
Humidity: 73%
Barometer: 29.94 inHg , 1013.9 hPa
Clouds: Partly cloudy
Visibility: 10 miles , 16 km
Cloud details: Partly cloudy 3300 ft
2019/12/10 11:15 KEZS 101115Z AUTO 29007KT 10SM SCT033 M10/M14 A2994 RMK AO2 T11051140
KCLI - Clintonville, Wisconsin, USA
Distance from station: WNW 36mi, 58km
Updated: Tue, 10-Dec-2019 5:15am CST
Clear
Clear
 Wind from WNW
Wind: WNW 12 mph , 19 km/h, Gust: 17 mph , 28 km/h
Temperature: 10°F , -12°C
Wind Chill: -5°F , -21°C
Dew Point: 3°F , -16°C
Humidity: 72%
Barometer: 29.96 inHg , 1014.6 hPa
Clouds: Clear
Visibility: 10 miles , 16 km
2019/12/10 11:15 KCLI 101115Z AUTO 29010G15KT 10SM CLR M12/M16 A2996 RMK AO2 T11211157
 
KOSH - Oshkosh, Wisconsin, USA
Distance from station: SW 41mi, 66km
Updated: Tue, 10-Dec-2019 4:53am CST
Overcast
Overcast
 Wind from NW
Wind: NW 18 mph , 30 km/h, Gust: 28 mph , 44 km/h
Temperature: 14°F , -10°C
Wind Chill: -3°F , -19°C
Dew Point: 7°F , -14°C
Humidity: 73%
Barometer: 29.94 inHg , 1013.9 hPa
Clouds: Overcast
Visibility: 8 miles , 13 km
Cloud details: Overcast 2100 ft
2019/12/10 10:53 KOSH 101053Z AUTO 31016G24KT 8SM OVC021 M10/M14 A2994 RMK AO2 SNB41E53 SLP158 P0000 T11001139
KSUE - Sturgeon Bay, Wisconsin, USA
Distance from station: NE 42mi, 68km
Updated: Tue, 10-Dec-2019 4:56am CST
Overcast
Overcast
 Wind from NW
Wind: NW 13 mph , 20 km/h
Temperature: 18°F , -8°C
Wind Chill: 5°F , -15°C
Dew Point: 9°F , -13°C
Humidity: 68%
Barometer: 29.90 inHg , 1012.5 hPa
Clouds: Overcast
Visibility: 10 miles , 16 km
Cloud details: Mostly cloudy 2900 ft
Overcast 3500 ft
2019/12/10 10:56 KSUE 101056Z AUTO 31011KT 10SM BKN029 OVC035 M08/M13 A2990 RMK AO2 SNB19E50 SLP134 P0000 T10831133 FZRANO $
 
KSBM - Sheboygan, Wisconsin, USA
Distance from station: SSE 46mi, 75km
Updated: Tue, 10-Dec-2019 4:53am CST
Light snow, Overcast
Light snow, Overcast
 Wind from WNW
Wind: WNW 15 mph , 24 km/h, Gust: 24 mph , 39 km/h
Temperature: 18°F , -8°C
Wind Chill: 4°F , -16°C
Dew Point: 10°F , -12°C
Humidity: 73%
Barometer: 29.92 inHg , 1013.2 hPa
Summary: Light Snow
Clouds: Overcast
Visibility: 4 miles , 6 km
Cloud details: Few Clouds 1600 ft
Mostly cloudy 2300 ft
Overcast 6000 ft
2019/12/10 10:53 KSBM 101053Z AUTO 29013G21KT 4SM -SN FEW016 BKN023 OVC060 M08/M12 A2992 RMK AO2 SLP143 P0000 T10781117
KPCZ - Waupaca, Wisconsin, USA
Distance from station: W 48mi, 77km
Updated: Tue, 10-Dec-2019 5:15am CST
Overcast
Overcast
 Wind from WNW
Wind: WNW 10 mph , 17 km/h, Gust: 17 mph , 28 km/h
Temperature: 12°F , -11°C
Wind Chill: -1°F , -18°C
Dew Point: 5°F , -15°C
Humidity: 73%
Barometer: 29.98 inHg , 1015.2 hPa
Clouds: Overcast
Visibility: 10 miles , 16 km
Cloud details: Partly cloudy 2000 ft
Overcast 4100 ft
2019/12/10 11:15 KPCZ 101115Z AUTO 29009G15KT 10SM SCT020 OVC041 M11/M15 A2998 RMK AO2 T11121150